Etusivu
METAR-TAF:

METAR-TAF

Lentoasemat :

Lleida-Alguaire

Lleida, Espanja

Leveyspiiri: 41-43-40N, Pituuspiiri: 000-32-09E, korkeus merenpinnasta: 350 m

Tämänhetkinen sää

Tämä raportti tehtiin 37 minuuttia sitten, kello 05.00 UTC
Tuuli 8 kn idästä/koillisesta
Lämpötila 6°C
Kosteus 100%
Ilmanpaine 1018 hPa
Näkyvyys 10 km tai enemmän
Hajanaisia pilviä 300 ft:n korkeudessa
Pilvistä 900 ft:n korkeudessa
heikkoa sadetta

METAR: LEDA 190500Z AUTO 07008KT 9999 -RA SCT003 OVC009 06/06 Q1018

Aika: 06:37 (05:37 UTC)


TAF: puuttuu

Säähavainnot ja -ennusteet yli 4000 lentoasemalta (METAR- ja TAF-raportit).

Käytössä olevat sääasemat on merkitty karttaan keltaisilla ja punaisilla pisteillä.

Aseta hiiri pisteen päälle nähdäksesi sääaseman nimen.

Klikkaa sitten nähdäksesi säähavainnot ja -ennusteet.

Kartan vaihtaminen: klikkaa mustalla rastilla varustettuja vihreitä pisteitä, niin voit zoomata sisään; viivalla varustettua vihreää pistettä, niin voit zoomata ulos tai vihreitä nuolia, niin pääset viereisille kartoille.


METAR-TAF: